createdAt,value
2022-09-01T00:05:33.638Z,99918.70
2022-09-01T00:15:07.162Z,99925.02
2022-09-01T00:24:40.984Z,99923.77
2022-09-01T00:34:14.427Z,99921.27
2022-09-01T00:43:50.450Z,99913.81
2022-09-01T00:53:23.071Z,99907.73
2022-09-01T01:02:57.023Z,99910.72
2022-09-01T01:12:31.095Z,99906.94
2022-09-01T01:22:06.603Z,99911.59
2022-09-01T01:31:38.638Z,99901.36
2022-09-01T01:41:14.353Z,99905.03
2022-09-01T01:50:46.267Z,99903.46
2022-09-01T02:00:30.312Z,99911.39
2022-09-01T02:09:54.773Z,99909.05
2022-09-01T02:19:26.761Z,99902.62
2022-09-01T02:29:00.652Z,99899.58
2022-09-01T02:38:34.874Z,99889.55
2022-09-01T02:48:08.920Z,99888.50
2022-09-01T02:57:42.624Z,99877.66
2022-09-01T03:07:17.264Z,99878.77
2022-09-01T03:16:51.468Z,99876.74
2022-09-01T03:26:24.833Z,99873.48
2022-09-01T03:35:58.576Z,99876.13
2022-09-01T03:45:34.421Z,99867.34
2022-09-01T03:55:06.748Z,99873.37
2022-09-01T04:04:40.661Z,99874.31
2022-09-01T04:14:14.824Z,99878.43
2022-09-01T04:23:49.445Z,99878.77
2022-09-01T04:33:23.562Z,99881.78
2022-09-01T04:42:59.657Z,99882.84
2022-09-01T04:52:32.273Z,99879.56
2022-09-01T05:02:08.065Z,99878.33
2022-09-01T05:11:40.609Z,99889.77
2022-09-01T05:21:15.261Z,99885.80
2022-09-01T05:30:48.567Z,99885.05
2022-09-01T05:40:23.383Z,99883.63
2022-09-01T05:49:57.730Z,99883.03
2022-09-01T05:59:31.846Z,99890.25
2022-09-01T06:09:07.637Z,99891.75
2022-09-01T06:18:40.340Z,99905.23
2022-09-01T06:28:14.632Z,99900.94
2022-09-01T06:37:49.209Z,99907.91
2022-09-01T06:47:25.102Z,99908.23
2022-09-01T06:48:27.474Z,99901.48
2022-09-01T06:58:05.742Z,99904.65
2022-09-01T07:09:18.958Z,99916.47
2022-09-01T07:09:47.470Z,99920.98
2022-09-01T07:18:04.123Z,99926.31
2022-09-01T07:19:08.022Z,99927.03
2022-09-01T07:20:27.656Z,99929.05
2022-09-01T07:29:42.963Z,99935.70
2022-09-01T07:30:48.540Z,99928.47
2022-09-01T07:31:49.347Z,99926.16
2022-09-01T07:32:52.041Z,99932.13
2022-09-01T07:34:37.571Z,99930.70
2022-09-01T07:34:58.318Z,99927.12
2022-09-01T07:43:28.465Z,99936.06
2022-09-01T07:44:29.601Z,99936.82
2022-09-01T07:45:32.103Z,99937.16
2022-09-01T07:46:37.638Z,99933.77
2022-09-01T07:47:55.415Z,99936.70
2022-09-01T07:58:14.947Z,99940.25
2022-09-01T07:59:17.505Z,99941.72
2022-09-01T08:00:20.092Z,99950.95
2022-09-01T08:01:24.101Z,99944.49
2022-09-01T08:02:26.448Z,99946.27
2022-09-01T08:03:28.851Z,99944.73
2022-09-01T08:04:31.333Z,99947.05
2022-09-01T08:05:33.759Z,99944.41
2022-09-01T08:06:39.404Z,99945.38
2022-09-01T08:07:51.561Z,99946.50
2022-09-01T08:08:41.110Z,99942.79
2022-09-01T08:09:44.745Z,99945.14
2022-09-01T08:10:48.747Z,99946.66
2022-09-01T08:12:01.475Z,99946.23
2022-09-01T08:12:58.282Z,99943.61
2022-09-01T08:13:54.945Z,99942.47
2022-09-01T08:15:12.965Z,99946.91
2022-09-01T08:16:07.676Z,99942.14
2022-09-01T08:18:07.112Z,99943.52
2022-09-01T08:19:18.373Z,99946.89
2022-09-01T08:20:14.151Z,99948.60
2022-09-01T08:21:15.820Z,99946.92
2022-09-01T08:22:18.335Z,99949.72
2022-09-01T08:23:20.766Z,99950.95
2022-09-01T08:24:23.234Z,99951.81
2022-09-01T08:25:25.707Z,99955.44
2022-09-01T08:26:28.198Z,99952.02
2022-09-01T08:27:30.657Z,99955.45
2022-09-01T08:28:33.160Z,99955.50
2022-09-01T08:29:35.567Z,99952.05
2022-09-01T08:30:39.665Z,99956.61
2022-09-01T08:31:42.077Z,99957.32
2022-09-01T08:32:44.471Z,99956.70
2022-09-01T08:33:48.538Z,99961.16
2022-09-01T08:34:50.911Z,99956.70
2022-09-01T08:35:54.124Z,99959.25
2022-09-01T08:36:55.791Z,99960.08
2022-09-01T08:37:58.230Z,99958.52
2022-09-01T08:39:00.667Z,99958.13
2022-09-01T08:40:03.997Z,99955.95
2022-09-01T08:41:05.617Z,99959.48
2022-09-01T08:42:08.626Z,99958.98
2022-09-01T08:43:14.676Z,99958.39
2022-09-01T08:44:12.881Z,99962.42
2022-09-01T08:45:15.362Z,99960.10
2022-09-01T08:46:17.849Z,99961.17
2022-09-01T08:47:35.770Z,99961.95
2022-09-01T08:49:27.466Z,99962.30
2022-09-01T08:50:29.160Z,99960.25
2022-09-01T08:51:31.532Z,99968.00
2022-09-01T08:52:33.987Z,99968.05
2022-09-01T08:53:36.434Z,99964.30
2022-09-01T08:54:40.514Z,99969.42
2022-09-01T08:55:42.851Z,99965.02
2022-09-01T08:56:45.314Z,99964.16
2022-09-01T08:57:50.412Z,99959.59
2022-09-01T08:58:54.156Z,99966.20
2022-09-01T08:59:56.806Z,99962.84
2022-09-01T09:00:59.086Z,99962.52
2022-09-01T09:02:01.527Z,99959.63
2022-09-01T09:03:04.094Z,99965.06
2022-09-01T09:04:06.538Z,99963.13
2022-09-01T09:05:16.385Z,99959.11
2022-09-01T09:06:11.473Z,99954.03
2022-09-01T09:07:13.911Z,99954.69
2022-09-01T09:08:16.379Z,99956.52
2022-09-01T09:09:18.908Z,99956.38
2022-09-01T09:10:21.311Z,99958.80
2022-09-01T09:11:23.785Z,99954.16
2022-09-01T09:12:26.292Z,99952.09
2022-09-01T09:13:28.724Z,99951.10
2022-09-01T09:14:31.213Z,99950.91
2022-09-01T09:15:33.727Z,99954.64
2022-09-01T09:16:36.179Z,99955.21
2022-09-01T09:17:38.630Z,99950.65
2022-09-01T09:18:54.556Z,99951.56
2022-09-01T09:19:46.239Z,99954.81
2022-09-01T09:20:48.563Z,99955.53
2022-09-01T09:21:51.008Z,99950.65
2022-09-01T09:22:53.510Z,99952.27
2022-09-01T09:23:56.088Z,99951.13
2022-09-01T09:24:58.524Z,99947.35
2022-09-01T09:26:00.977Z,99951.59
2022-09-01T09:27:03.500Z,99947.47
2022-09-01T09:28:05.986Z,99949.55
2022-09-01T09:29:08.489Z,99948.66
2022-09-01T09:30:11.706Z,99949.93
2022-09-01T09:31:15.184Z,99947.40
2022-09-01T09:32:39.730Z,99948.02
2022-09-01T09:34:23.874Z,99944.31
2022-09-01T09:35:26.364Z,99942.52
2022-09-01T09:36:29.077Z,99951.69
2022-09-01T09:37:31.537Z,99944.00
2022-09-01T09:38:35.623Z,99945.75
2022-09-01T09:39:38.054Z,99948.28
2022-09-01T09:41:07.446Z,99944.39
2022-09-01T09:41:42.989Z,99942.95
2022-09-01T09:42:47.321Z,99933.30
2022-09-01T09:43:49.356Z,99935.72
2022-09-01T09:44:51.851Z,99933.10
2022-09-01T09:45:56.300Z,99929.35
2022-09-01T09:46:58.415Z,99932.54
2022-09-01T09:48:02.396Z,99932.38
2022-09-01T09:49:04.735Z,99928.00
2022-09-01T09:50:07.193Z,99929.41
2022-09-01T09:51:09.611Z,99928.97
2022-09-01T09:52:12.112Z,99927.64
2022-09-01T09:53:14.554Z,99931.22
2022-09-01T09:54:17.032Z,99924.52
2022-09-01T09:55:21.288Z,99932.84
2022-09-01T09:56:23.455Z,99926.80
2022-09-01T09:57:27.506Z,99926.48
2022-09-01T09:58:29.806Z,99925.60
2022-09-01T09:59:54.010Z,99925.64
2022-09-01T10:00:34.804Z,99927.73
2022-09-01T10:01:37.258Z,99931.84
2022-09-01T10:02:39.733Z,99926.84
2022-09-01T10:03:43.747Z,99927.41
2022-09-01T10:04:46.110Z,99915.44
2022-09-01T10:05:48.625Z,99930.31
2022-09-01T10:06:51.065Z,99926.67
2022-09-01T10:07:55.252Z,99930.41
2022-09-01T10:08:57.728Z,99927.16
2022-09-01T10:10:00.164Z,99921.25
2022-09-01T10:11:02.579Z,99923.00
2022-09-01T10:12:06.660Z,99920.75
2022-09-01T10:13:10.629Z,99922.42
2022-09-01T10:14:13.637Z,99918.84
2022-09-01T10:15:16.990Z,99918.86
2022-09-01T10:16:19.341Z,99918.98
2022-09-01T10:17:23.453Z,99922.31
2022-09-01T10:18:29.360Z,99915.69
2022-09-01T10:19:35.614Z,99916.69
2022-09-01T10:20:35.316Z,99921.23
2022-09-01T10:21:39.216Z,99916.77
2022-09-01T10:22:41.630Z,99921.02
2022-09-01T10:23:44.803Z,99917.54
2022-09-01T10:24:50.225Z,99915.70
2022-09-01T10:25:50.313Z,99920.11
2022-09-01T10:26:52.471Z,99919.78
2022-09-01T10:27:55.251Z,99918.34
2022-09-01T10:28:57.490Z,99919.55
2022-09-01T10:30:19.049Z,99918.05
2022-09-01T10:31:02.529Z,99914.55
2022-09-01T10:32:28.315Z,99915.56
2022-09-01T10:33:15.745Z,99908.66
2022-09-01T10:34:11.435Z,99912.86
2022-09-01T10:35:13.764Z,99910.95
2022-09-01T10:36:16.213Z,99911.08
2022-09-01T10:37:18.703Z,99912.99
2022-09-01T10:38:21.258Z,99908.69
2022-09-01T10:39:28.448Z,99906.70
2022-09-01T10:40:31.550Z,99909.34
2022-09-01T10:41:37.902Z,99914.72
2022-09-01T10:42:45.217Z,99911.73
2022-09-01T10:43:43.792Z,99911.73
2022-09-01T10:44:50.053Z,99914.27
2022-09-01T10:45:55.614Z,99912.48
2022-09-01T10:46:52.451Z,99918.94
2022-09-01T10:47:54.765Z,99916.63
2022-09-01T10:49:02.803Z,99919.70
2022-09-01T10:50:01.604Z,99915.69
2022-09-01T10:51:03.706Z,99915.45
2022-09-01T10:52:27.815Z,99916.75
2022-09-01T10:53:08.620Z,99904.33
2022-09-01T10:54:11.151Z,99914.60
2022-09-01T10:55:15.197Z,99912.16
2022-09-01T10:56:23.777Z,99907.14
2022-09-01T10:57:19.959Z,99909.92
2022-09-01T10:59:37.604Z,99909.11
2022-09-01T11:00:36.543Z,99906.13
2022-09-01T11:01:47.643Z,99903.92
2022-09-01T11:02:36.057Z,99900.85
2022-09-01T11:03:41.970Z,99896.66
2022-09-01T11:04:38.852Z,99895.80
2022-09-01T11:05:41.226Z,99903.44
2022-09-01T11:07:11.509Z,99902.42
2022-09-01T11:08:00.284Z,99900.08
2022-09-01T11:08:53.413Z,99901.11
2022-09-01T11:09:57.283Z,99901.56
2022-09-01T11:10:59.813Z,99901.55
2022-09-01T11:12:02.285Z,99901.89
2022-09-01T11:13:04.794Z,99896.64
2022-09-01T11:14:09.080Z,99897.86
2022-09-01T11:15:11.310Z,99899.61
2022-09-01T11:16:14.096Z,99899.79
2022-09-01T11:17:16.420Z,99896.75
2022-09-01T11:18:19.315Z,99894.73
2022-09-01T11:19:21.278Z,99892.93
2022-09-01T11:20:23.769Z,99891.23
2022-09-01T11:21:27.959Z,99894.91
2022-09-01T11:22:31.804Z,99891.95
2022-09-01T11:23:35.735Z,99891.20
2022-09-01T11:24:38.068Z,99891.95
2022-09-01T11:25:40.671Z,99889.06
2022-09-01T11:26:44.647Z,99889.89
2022-09-01T11:27:47.038Z,99886.36
2022-09-01T11:28:51.102Z,99883.50
2022-09-01T11:29:55.495Z,99891.98
2022-09-01T11:30:57.561Z,99877.07
2022-09-01T11:32:01.548Z,99882.16
2022-09-01T11:33:05.423Z,99880.34
2022-09-01T11:34:09.530Z,99879.97
2022-09-01T11:35:11.853Z,99883.24
2022-09-01T11:36:14.256Z,99876.08
2022-09-01T11:37:16.782Z,99883.44
2022-09-01T11:38:19.475Z,99873.80
2022-09-01T11:39:23.360Z,99877.67
2022-09-01T11:40:25.748Z,99872.32
2022-09-01T11:41:29.825Z,99874.18
2022-09-01T11:42:32.222Z,99877.48
2022-09-01T11:43:34.711Z,99874.29
2022-09-01T11:44:37.184Z,99873.20
2022-09-01T11:45:39.652Z,99874.39
2022-09-01T11:46:42.002Z,99874.97
2022-09-01T11:47:46.200Z,99868.66
2022-09-01T11:48:52.026Z,99869.55
2022-09-01T11:49:52.644Z,99873.13
2022-09-01T11:50:55.079Z,99872.98
2022-09-01T11:51:57.537Z,99868.63
2022-09-01T11:53:04.631Z,99866.45
2022-09-01T11:54:02.438Z,99863.95
2022-09-01T11:55:06.672Z,99867.14
2022-09-01T11:56:10.629Z,99872.17
2022-09-01T11:57:14.578Z,99866.01
2022-09-01T11:58:18.017Z,99863.97
2022-09-01T11:59:19.470Z,99857.33
2022-09-01T12:00:21.942Z,99860.17
2022-09-01T12:01:24.458Z,99869.25
2022-09-01T12:02:27.113Z,99854.44
2022-09-01T12:03:29.508Z,99854.44
2022-09-01T12:04:31.944Z,99853.72
2022-09-01T12:05:34.409Z,99857.07
2022-09-01T12:06:36.852Z,99851.94
2022-09-01T12:07:39.339Z,99853.09
2022-09-01T12:08:41.849Z,99850.42
2022-09-01T12:09:45.964Z,99853.17
2022-09-01T12:10:48.267Z,99843.56
2022-09-01T12:11:51.786Z,99842.05
2022-09-01T12:12:54.111Z,99841.17
2022-09-01T12:13:56.655Z,99839.48
2022-09-01T12:15:07.732Z,99837.63
2022-09-01T12:16:19.283Z,99837.88
2022-09-01T12:17:07.325Z,99838.86
2022-09-01T12:18:09.660Z,99837.16
2022-09-01T12:19:13.794Z,99837.34
2022-09-01T12:20:16.206Z,99834.61
2022-09-01T12:21:18.660Z,99836.05
2022-09-01T12:22:21.163Z,99842.56
2022-09-01T12:23:23.678Z,99839.63
2022-09-01T12:24:26.152Z,99837.30
2022-09-01T12:25:30.234Z,99845.98
2022-09-01T12:26:32.572Z,99840.67
2022-09-01T12:27:35.000Z,99835.43
2022-09-01T12:28:37.527Z,99842.06
2022-09-01T12:29:39.983Z,99842.50
2022-09-01T12:30:42.480Z,99830.32
2022-09-01T12:31:44.990Z,99828.97
2022-09-01T12:32:50.065Z,99825.36
2022-09-01T12:33:52.372Z,99827.53
2022-09-01T12:34:54.884Z,99836.30
2022-09-01T12:35:59.502Z,99832.52
2022-09-01T12:36:59.798Z,99828.13
2022-09-01T12:38:03.050Z,99831.06
2022-09-01T12:39:04.719Z,99825.05
2022-09-01T12:40:07.751Z,99822.12
2022-09-01T12:41:11.395Z,99821.92
2022-09-01T12:42:14.829Z,99825.12
2022-09-01T12:43:17.836Z,99821.25
2022-09-01T12:44:20.241Z,99822.62
2022-09-01T12:45:24.260Z,99823.02
2022-09-01T12:46:26.561Z,99824.91
2022-09-01T12:47:30.640Z,99830.88
2022-09-01T12:48:33.418Z,99823.55
2022-09-01T12:49:37.264Z,99820.13
2022-09-01T12:50:39.616Z,99819.87
2022-09-01T12:51:43.769Z,99819.38
2022-09-01T12:52:46.287Z,99814.89
2022-09-01T12:53:52.996Z,99818.16
2022-09-01T12:54:55.231Z,99820.06
2022-09-01T12:55:59.497Z,99814.27
2022-09-01T12:57:01.772Z,99811.69
2022-09-01T13:06:34.498Z,99809.03
2022-09-01T13:07:38.575Z,99808.44
2022-09-01T13:08:40.982Z,99801.90
2022-09-01T13:09:43.461Z,99798.86
2022-09-01T13:10:47.641Z,99800.14
2022-09-01T13:12:06.816Z,99799.95
2022-09-01T13:12:52.633Z,99803.36
2022-09-01T13:13:54.990Z,99802.06
2022-09-01T13:14:59.188Z,99806.30
2022-09-01T13:16:01.682Z,99801.89
2022-09-01T13:17:04.110Z,99796.25
2022-09-01T13:18:06.703Z,99800.13
2022-09-01T13:19:10.987Z,99800.48
2022-09-01T13:20:14.294Z,99800.38
2022-09-01T13:21:16.597Z,99804.39
2022-09-01T13:22:20.688Z,99800.48
2022-09-01T13:23:24.675Z,99798.06
2022-09-01T13:24:30.360Z,99799.53
2022-09-01T13:25:29.546Z,99797.86
2022-09-01T13:26:33.636Z,99796.83
2022-09-01T13:27:36.032Z,99798.30
2022-09-01T13:28:40.843Z,99796.83
2022-09-01T13:29:44.149Z,99792.13
2022-09-01T13:30:46.647Z,99786.88
2022-09-01T13:34:10.471Z,99789.97
2022-09-01T13:34:56.792Z,99792.48
2022-09-01T13:35:59.374Z,99788.10
2022-09-01T13:37:03.353Z,99786.14
2022-09-01T13:38:05.859Z,99785.52
2022-09-01T13:39:09.975Z,99786.03
2022-09-01T13:40:12.361Z,99787.59
2022-09-01T13:41:14.751Z,99790.65
2022-09-01T13:42:17.281Z,99788.83
2022-09-01T13:43:19.881Z,99780.68
2022-09-01T13:44:22.260Z,99785.49
2022-09-01T13:45:24.809Z,99784.60
2022-09-01T13:46:28.868Z,99787.02
2022-09-01T13:47:31.307Z,99785.98
2022-09-01T13:50:04.873Z,99783.57
2022-09-01T13:51:41.276Z,99782.48
2022-09-01T13:52:45.346Z,99781.78
2022-09-01T13:53:47.711Z,99780.31
2022-09-01T13:54:50.232Z,99779.56
2022-09-01T13:55:54.370Z,99782.88
2022-09-01T13:56:56.704Z,99780.23
2022-09-01T13:57:59.221Z,99778.26
2022-09-01T13:59:01.723Z,99774.91
2022-09-01T14:00:04.258Z,99772.17
2022-09-01T14:01:06.969Z,99776.02
2022-09-01T14:02:09.268Z,99779.78
2022-09-01T14:03:13.410Z,99774.39
2022-09-01T14:04:17.563Z,99771.30
2022-09-01T14:05:19.900Z,99773.61
2022-09-01T14:06:23.972Z,99769.24
2022-09-01T14:07:26.392Z,99769.77
2022-09-01T14:08:30.509Z,99771.06
2022-09-01T14:09:32.863Z,99763.42
2022-09-01T14:10:35.509Z,99765.39
2022-09-01T14:11:38.038Z,99766.44
2022-09-01T14:12:40.565Z,99766.18
2022-09-01T14:13:44.623Z,99767.03
2022-09-01T14:15:51.062Z,99761.99
2022-09-01T14:16:53.523Z,99766.25
2022-09-01T14:17:56.015Z,99761.75
2022-09-01T14:18:58.579Z,99764.56
2022-09-01T14:20:01.026Z,99769.00
2022-09-01T14:21:03.527Z,99760.38
2022-09-01T14:22:06.073Z,99763.22
2022-09-01T14:23:10.136Z,99763.16
2022-09-01T14:24:14.171Z,99760.78
2022-09-01T14:25:16.564Z,99766.47
2022-09-01T14:26:19.081Z,99766.97
2022-09-01T14:27:21.584Z,99767.38
2022-09-01T14:28:24.255Z,99767.26
2022-09-01T14:29:26.611Z,99767.28
2022-09-01T14:30:31.352Z,99763.80
2022-09-01T14:31:31.662Z,99761.88
2022-09-01T14:32:34.075Z,99760.75
2022-09-01T14:33:36.563Z,99760.23
2022-09-01T14:34:40.639Z,99765.31
2022-09-01T14:35:43.131Z,99760.58
2022-09-01T14:36:45.981Z,99759.34
2022-09-01T14:37:49.623Z,99759.66
2022-09-01T14:38:52.035Z,99757.69
2022-09-01T14:39:54.606Z,99758.18
2022-09-01T14:40:58.684Z,99758.53
2022-09-01T14:42:00.969Z,99761.13
2022-09-01T14:43:05.113Z,99758.81
2022-09-01T14:44:07.453Z,99762.38
2022-09-01T14:45:09.926Z,99760.22
2022-09-01T14:46:12.402Z,99754.56
2022-09-01T14:47:19.151Z,99758.95
2022-09-01T14:48:18.915Z,99755.97
2022-09-01T14:49:22.427Z,99750.17
2022-09-01T14:50:23.920Z,99757.66
2022-09-01T14:52:10.076Z,99747.90
2022-09-01T14:52:32.007Z,99749.21
2022-09-01T14:53:34.375Z,99749.73
2022-09-01T14:54:36.845Z,99744.65
2022-09-01T14:55:39.334Z,99749.00
2022-09-01T14:56:41.879Z,99744.03
2022-09-01T14:57:45.903Z,99745.55
2022-09-01T14:58:48.272Z,99742.33
2022-09-01T14:59:50.797Z,99738.83
2022-09-01T15:00:53.330Z,99743.54
2022-09-01T15:01:57.426Z,99745.43
2022-09-01T15:02:59.706Z,99746.92
2022-09-01T15:04:02.189Z,99741.41
2022-09-01T15:05:04.714Z,99745.63
2022-09-01T15:06:08.748Z,99743.83
2022-09-01T15:07:11.502Z,99737.48
2022-09-01T15:08:17.543Z,99738.45
2022-09-01T15:09:19.168Z,99736.05
2022-09-01T15:10:25.037Z,99730.59
2022-09-01T15:11:24.769Z,99729.91
2022-09-01T15:12:28.795Z,99733.74
2022-09-01T15:13:31.222Z,99733.31
2022-09-01T15:14:33.733Z,99736.32
2022-09-01T15:15:37.837Z,99735.25
2022-09-01T15:16:40.313Z,99727.16
2022-09-01T15:17:45.961Z,99731.02
2022-09-01T15:18:46.842Z,99733.27
2022-09-01T15:19:51.026Z,99730.02
2022-09-01T15:20:53.474Z,99723.09
2022-09-01T15:21:57.590Z,99729.27
2022-09-01T15:23:00.097Z,99717.24
2022-09-01T15:24:02.592Z,99721.80
2022-09-01T15:25:05.046Z,99728.52
2022-09-01T15:26:07.516Z,99726.94
2022-09-01T15:27:10.091Z,99722.52
2022-09-01T15:28:14.286Z,99723.20
2022-09-01T15:29:18.232Z,99727.19
2022-09-01T15:30:22.245Z,99726.86
2022-09-01T15:31:28.636Z,99724.06
2022-09-01T15:32:27.678Z,99721.09
2022-09-01T15:33:29.683Z,99724.64
2022-09-01T15:34:34.570Z,99722.61
2022-09-01T15:35:37.236Z,99726.55
2022-09-01T15:36:39.707Z,99725.34
2022-09-01T15:37:42.278Z,99724.58
2022-09-01T15:38:44.787Z,99719.13
2022-09-01T15:39:48.288Z,99724.53
2022-09-01T15:40:57.103Z,99718.61
2022-09-01T15:41:53.680Z,99724.47
2022-09-01T15:42:56.148Z,99717.81
2022-09-01T15:43:58.639Z,99719.30
2022-09-01T15:45:01.261Z,99740.19
2022-09-01T15:46:03.606Z,99723.09
2022-09-01T15:47:06.483Z,99719.39
2022-09-01T15:48:09.263Z,99716.32
2022-09-01T15:49:14.348Z,99712.80
2022-09-01T15:50:21.521Z,99713.56
2022-09-01T15:51:20.672Z,99710.94
2022-09-01T15:52:23.241Z,99712.25
2022-09-01T15:53:25.793Z,99707.47
2022-09-01T15:54:30.620Z,99709.94
2022-09-01T15:55:31.346Z,99707.52
2022-09-01T15:56:33.864Z,99714.08
2022-09-01T15:57:38.036Z,99706.05
2022-09-01T15:58:59.781Z,99713.82
2022-09-01T15:59:42.940Z,99711.08
2022-09-01T16:00:47.084Z,99710.97
2022-09-01T16:01:50.997Z,99713.21
2022-09-01T16:02:53.347Z,99708.40
2022-09-01T16:03:55.883Z,99713.59
2022-09-01T16:04:58.394Z,99711.96
2022-09-01T16:06:01.213Z,99710.78
2022-09-01T16:07:05.404Z,99713.53
2022-09-01T16:08:07.716Z,99721.58
2022-09-01T16:09:11.858Z,99707.52
2022-09-01T16:10:14.222Z,99709.24
2022-09-01T16:11:18.252Z,99710.22
2022-09-01T16:12:20.718Z,99709.25
2022-09-01T16:13:23.214Z,99705.37
2022-09-01T16:14:27.388Z,99707.02
2022-09-01T16:15:29.714Z,99709.67
2022-09-01T16:16:32.474Z,99705.36
2022-09-01T16:17:34.817Z,99704.52
2022-09-01T16:18:37.353Z,99706.92
2022-09-01T16:19:39.880Z,99707.06
2022-09-01T16:20:43.971Z,99706.64
2022-09-01T16:21:47.988Z,99704.39
2022-09-01T16:22:50.398Z,99705.41
2022-09-01T16:23:53.134Z,99704.88
2022-09-01T16:24:59.714Z,99707.23
2022-09-01T16:26:01.884Z,99706.63
2022-09-01T16:27:04.357Z,99708.93
2022-09-01T16:28:06.912Z,99705.56
2022-09-01T16:29:09.421Z,99704.17
2022-09-01T16:30:13.477Z,99706.40
2022-09-01T16:31:15.951Z,99701.64
2022-09-01T16:32:18.481Z,99704.48
2022-09-01T16:33:21.126Z,99700.84
2022-09-01T16:34:27.691Z,99697.75
2022-09-01T16:35:29.584Z,99703.60
2022-09-01T16:36:31.518Z,99696.30
2022-09-01T16:37:33.953Z,99695.30
2022-09-01T16:38:36.456Z,99698.02
2022-09-01T16:39:38.972Z,99691.52
2022-09-01T16:40:41.569Z,99690.39
2022-09-01T16:41:44.124Z,99692.99
2022-09-01T16:42:46.617Z,99693.05
2022-09-01T16:43:50.814Z,99684.55
2022-09-01T16:44:53.320Z,99695.80
2022-09-01T16:45:57.329Z,99685.13
2022-09-01T16:46:59.774Z,99692.28
2022-09-01T16:48:02.262Z,99689.95
2022-09-01T16:49:04.706Z,99688.05
2022-09-01T16:50:07.209Z,99686.30
2022-09-01T16:51:11.273Z,99682.48
2022-09-01T16:52:13.599Z,99682.41
2022-09-01T16:53:17.676Z,99684.13
2022-09-01T16:54:21.661Z,99681.41
2022-09-01T16:55:24.060Z,99681.81
2022-09-01T16:56:26.581Z,99691.42
2022-09-01T16:57:29.127Z,99678.06
2022-09-01T16:58:31.696Z,99676.38
2022-09-01T16:59:35.766Z,99672.91
2022-09-01T17:00:39.829Z,99675.60
2022-09-01T17:01:42.254Z,99674.56
2022-09-01T17:02:44.706Z,99673.65
2022-09-01T17:03:48.791Z,99674.79
2022-09-01T17:04:51.163Z,99669.55
2022-09-01T17:05:53.667Z,99672.79
2022-09-01T17:06:56.155Z,99671.19
2022-09-01T17:07:58.707Z,99669.16
2022-09-01T17:09:02.816Z,99670.59
2022-09-01T17:10:06.781Z,99670.59
2022-09-01T17:11:09.160Z,99672.31
2022-09-01T17:12:13.240Z,99671.32
2022-09-01T17:13:15.678Z,99672.18
2022-09-01T17:14:18.195Z,99687.05
2022-09-01T17:15:20.635Z,99680.81
2022-09-01T17:16:23.223Z,99675.75
2022-09-01T17:17:25.715Z,99669.42
2022-09-01T17:18:29.831Z,99671.44
2022-09-01T17:19:32.312Z,99673.40
2022-09-01T17:20:36.385Z,99669.84
2022-09-01T17:21:38.737Z,99673.06
2022-09-01T17:22:41.289Z,99669.80
2022-09-01T17:23:45.639Z,99673.34
2022-09-01T17:24:48.017Z,99673.06
2022-09-01T17:25:52.065Z,99673.92
2022-09-01T17:26:54.431Z,99673.86
2022-09-01T17:27:56.877Z,99677.37
2022-09-01T17:28:59.320Z,99674.74
2022-09-01T17:30:01.780Z,99681.70
2022-09-01T17:31:04.289Z,99678.72
2022-09-01T17:32:06.773Z,99679.27
2022-09-01T17:33:12.112Z,99679.05
2022-09-01T17:34:11.700Z,99676.09
2022-09-01T17:35:15.862Z,99676.60
2022-09-01T17:36:18.160Z,99675.55
2022-09-01T17:37:20.624Z,99676.00
2022-09-01T17:38:23.210Z,99679.06
2022-09-01T17:39:25.564Z,99673.67
2022-09-01T17:40:28.096Z,99677.30
2022-09-01T17:41:30.568Z,99675.79
2022-09-01T17:42:33.021Z,99679.18
2022-09-01T17:43:35.502Z,99672.95
2022-09-01T17:44:39.599Z,99671.73
2022-09-01T17:45:41.979Z,99676.21
2022-09-01T17:46:44.626Z,99684.95
2022-09-01T17:47:46.938Z,99677.31
2022-09-01T17:48:49.424Z,99675.66
2022-09-01T17:49:51.847Z,99675.88
2022-09-01T17:50:56.924Z,99678.27
2022-09-01T17:51:58.233Z,99680.54
2022-09-01T17:53:00.726Z,99679.59
2022-09-01T17:54:04.882Z,99676.98
2022-09-01T17:55:07.475Z,99678.31
2022-09-01T17:56:09.905Z,99678.45
2022-09-01T17:57:12.468Z,99676.48
2022-09-01T17:58:14.944Z,99672.09
2022-09-01T17:59:18.981Z,99677.01
2022-09-01T18:00:21.349Z,99681.27
2022-09-01T18:01:23.855Z,99683.44
2022-09-01T18:02:26.337Z,99681.61
2022-09-01T18:03:30.374Z,99683.69
2022-09-01T18:04:32.760Z,99682.91
2022-09-01T18:05:35.388Z,99685.42
2022-09-01T18:06:39.510Z,99679.84
2022-09-01T18:16:09.753Z,99685.03
2022-09-01T18:25:43.452Z,99694.34
2022-09-01T18:35:18.013Z,99698.86
2022-09-01T18:44:53.956Z,99706.17
2022-09-01T18:54:25.930Z,99714.83
2022-09-01T19:04:00.276Z,99714.30
2022-09-01T19:13:34.225Z,99718.53
2022-09-01T19:23:09.765Z,99725.89
2022-09-01T19:32:41.630Z,99727.78
2022-09-01T19:42:15.561Z,99730.06
2022-09-01T19:51:51.414Z,99735.20
2022-09-01T20:01:24.265Z,99728.64
2022-09-01T20:10:58.100Z,99722.77
2022-09-01T20:20:32.603Z,99724.10
2022-09-01T20:30:07.054Z,99730.91
2022-09-01T20:31:09.663Z,99735.45
2022-09-01T20:40:42.863Z,99728.96
2022-09-01T20:50:18.109Z,99730.86
2022-09-01T20:59:51.731Z,99740.86
2022-09-01T21:09:26.385Z,99739.92
2022-09-01T21:18:58.220Z,99734.63
2022-09-01T21:28:32.468Z,99729.86
2022-09-01T21:38:07.003Z,99737.27
2022-09-01T21:47:43.527Z,99729.64
2022-09-01T21:57:16.034Z,99724.89
2022-09-01T22:06:52.017Z,99718.41
2022-09-01T22:16:24.869Z,99720.04
2022-09-01T22:25:59.223Z,99713.03
2022-09-01T22:35:33.343Z,99722.99
2022-09-01T22:45:05.521Z,99718.27
2022-09-01T22:54:39.656Z,99714.38
2022-09-01T23:04:15.543Z,99724.95
2022-09-01T23:13:48.997Z,99725.86
2022-09-01T23:23:22.610Z,99717.34
2022-09-01T23:32:55.977Z,99718.71
2022-09-01T23:42:28.121Z,99715.21
2022-09-01T23:52:03.970Z,99709.04
